createdAt,value
2023-11-13T00:01:29.003Z,6.73
2023-11-13T00:04:08.498Z,6.75
2023-11-13T00:06:47.893Z,6.72
2023-11-13T00:09:27.234Z,6.69
2023-11-13T00:12:12.865Z,6.71
2023-11-13T00:14:52.271Z,6.77
2023-11-13T00:17:31.879Z,6.79
2023-11-13T00:20:11.934Z,6.81
2023-11-13T00:22:51.287Z,6.82
2023-11-13T00:25:30.599Z,6.79
2023-11-13T00:28:15.057Z,6.79
2023-11-13T00:30:54.637Z,6.76
2023-11-13T00:33:34.173Z,6.77
2023-11-13T00:36:14.367Z,6.81
2023-11-13T00:38:53.707Z,6.80
2023-11-13T00:41:34.828Z,6.82
2023-11-13T00:44:19.580Z,6.90
2023-11-13T00:46:59.199Z,6.90
2023-11-13T00:49:38.693Z,6.89
2023-11-13T00:52:18.075Z,6.89
2023-11-13T00:54:58.915Z,6.90
2023-11-13T00:57:38.315Z,6.99
2023-11-13T01:00:23.733Z,7.00
2023-11-13T01:03:03.490Z,7.01
2023-11-13T01:05:43.308Z,7.04
2023-11-13T01:08:22.633Z,7.07
2023-11-13T01:11:02.030Z,7.04
2023-11-13T01:13:41.413Z,6.98
2023-11-13T01:16:26.970Z,6.94
2023-11-13T01:19:06.421Z,6.93
2023-11-13T01:21:45.967Z,6.95
2023-11-13T01:24:25.362Z,6.97
2023-11-13T01:27:04.682Z,6.97
2023-11-13T01:29:44.100Z,6.97
2023-11-13T01:32:28.520Z,6.93
2023-11-13T01:35:07.830Z,6.91
2023-11-13T01:37:47.213Z,6.91
2023-11-13T01:40:26.664Z,6.91
2023-11-13T01:43:05.972Z,6.90
2023-11-13T01:45:45.472Z,6.91
2023-11-13T01:48:31.763Z,6.93
2023-11-13T01:51:11.472Z,6.98
2023-11-13T01:53:51.096Z,7.00
2023-11-13T01:56:33.347Z,7.00
2023-11-13T01:59:14.968Z,7.01
2023-11-13T02:01:54.572Z,7.01
2023-11-13T02:04:39.285Z,7.03
2023-11-13T02:07:18.969Z,7.02
2023-11-13T02:09:58.661Z,7.02
2023-11-13T02:12:39.418Z,7.02
2023-11-13T02:15:19.159Z,6.98
2023-11-13T02:18:08.798Z,6.99
2023-11-13T02:20:53.332Z,7.02
2023-11-13T02:23:37.668Z,7.05
2023-11-13T02:26:22.163Z,7.07
2023-11-13T02:29:01.458Z,7.06
2023-11-13T02:31:41.422Z,7.05
2023-11-13T02:34:20.811Z,7.05
2023-11-13T02:37:00.892Z,7.03
2023-11-13T02:39:45.258Z,7.01
2023-11-13T02:42:25.259Z,7.01
2023-11-13T02:45:04.546Z,6.99
2023-11-13T02:47:44.374Z,6.98
2023-11-13T02:50:23.915Z,6.98
2023-11-13T02:53:03.181Z,6.97
2023-11-13T02:55:47.909Z,6.95
2023-11-13T02:58:27.628Z,6.94
2023-11-13T03:01:07.040Z,6.94
2023-11-13T03:03:46.537Z,6.94
2023-11-13T03:06:29.208Z,6.94
2023-11-13T03:09:08.544Z,6.92
2023-11-13T03:11:53.045Z,6.86
2023-11-13T03:14:32.476Z,6.77
2023-11-13T03:17:12.220Z,6.75
2023-11-13T03:19:51.634Z,6.76
2023-11-13T03:22:31.073Z,6.77
2023-11-13T03:25:10.918Z,6.79
2023-11-13T03:27:55.368Z,6.79
2023-11-13T03:30:35.386Z,6.80
2023-11-13T03:33:14.791Z,6.79
2023-11-13T03:35:54.249Z,6.78
2023-11-13T03:38:33.545Z,6.77
2023-11-13T03:41:13.209Z,6.78
2023-11-13T03:43:57.959Z,6.79
2023-11-13T03:46:37.887Z,6.82
2023-11-13T03:49:17.358Z,6.82
2023-11-13T03:51:56.848Z,6.84
2023-11-13T03:54:36.228Z,6.85
2023-11-13T03:57:15.873Z,6.86
2023-11-13T04:00:00.324Z,6.87
2023-11-13T04:02:39.594Z,6.89
2023-11-13T04:05:18.893Z,6.88
2023-11-13T04:07:58.184Z,6.88
2023-11-13T04:10:37.563Z,6.88
2023-11-13T04:13:17.046Z,6.88
2023-11-13T04:16:03.014Z,6.89
2023-11-13T04:18:42.358Z,6.89
2023-11-13T04:21:22.131Z,6.91
2023-11-13T04:24:01.410Z,6.91
2023-11-13T04:26:40.732Z,6.87
2023-11-13T04:29:20.030Z,6.85
2023-11-13T04:32:04.411Z,6.83
2023-11-13T04:34:43.843Z,6.83
2023-11-13T04:37:23.720Z,6.85
2023-11-13T04:40:03.092Z,6.87
2023-11-13T04:42:42.414Z,6.87
2023-11-13T04:45:21.866Z,6.87
2023-11-13T04:48:07.399Z,6.86
2023-11-13T04:50:46.782Z,6.87
2023-11-13T04:53:26.061Z,6.87
2023-11-13T04:56:05.431Z,6.85
2023-11-13T04:58:45.718Z,6.85
2023-11-13T05:01:25.421Z,6.85
2023-11-13T05:04:10.090Z,6.86
2023-11-13T05:06:50.347Z,6.86
2023-11-13T05:09:30.446Z,6.83
2023-11-13T05:12:10.473Z,6.84
2023-11-13T05:14:50.644Z,6.83
2023-11-13T05:17:29.999Z,6.86
2023-11-13T05:20:15.792Z,6.85
2023-11-13T05:22:56.524Z,6.84
2023-11-13T05:25:35.822Z,6.84
2023-11-13T05:28:15.247Z,6.85
2023-11-13T05:30:54.575Z,6.85
2023-11-13T05:33:34.158Z,6.86
2023-11-13T05:36:18.893Z,6.87
2023-11-13T05:38:58.360Z,6.87
2023-11-13T05:41:37.619Z,6.87
2023-11-13T05:44:16.953Z,6.89
2023-11-13T05:46:56.363Z,6.86
2023-11-13T05:49:35.831Z,6.80
2023-11-13T05:52:20.247Z,6.78
2023-11-13T05:54:59.624Z,6.79
2023-11-13T05:57:39.041Z,6.79
2023-11-13T06:00:21.158Z,6.78
2023-11-13T06:03:00.504Z,6.78
2023-11-13T06:05:39.827Z,6.77
2023-11-13T06:08:24.217Z,6.79
2023-11-13T06:11:03.663Z,6.83
2023-11-13T06:13:43.298Z,6.84
2023-11-13T06:16:22.781Z,6.89
2023-11-13T06:19:02.132Z,6.86
2023-11-13T06:21:42.053Z,6.91
2023-11-13T06:24:26.588Z,6.92
2023-11-13T06:27:06.069Z,6.97
2023-11-13T06:29:45.372Z,6.99
2023-11-13T06:32:24.911Z,6.98
2023-11-13T06:35:04.677Z,6.98
2023-11-13T06:37:43.991Z,7.01
2023-11-13T06:40:28.492Z,7.01
2023-11-13T06:43:07.898Z,7.02
2023-11-13T06:45:47.265Z,7.06
2023-11-13T06:48:26.583Z,7.08
2023-11-13T06:51:08.940Z,7.13
2023-11-13T06:53:49.952Z,7.16
2023-11-13T06:56:34.500Z,7.15
2023-11-13T06:59:14.145Z,7.14
2023-11-13T07:01:53.837Z,7.14
2023-11-13T07:04:33.232Z,7.13
2023-11-13T07:07:12.599Z,7.14
2023-11-13T07:09:52.010Z,7.16
2023-11-13T07:12:38.058Z,7.22
2023-11-13T07:15:21.624Z,7.35
2023-11-13T07:18:01.101Z,7.36
2023-11-13T07:20:41.218Z,7.39
2023-11-13T07:23:20.495Z,7.41
2023-11-13T07:25:59.809Z,7.43
2023-11-13T07:28:44.232Z,7.48
2023-11-13T07:31:23.598Z,7.48
2023-11-13T07:34:03.305Z,7.51
2023-11-13T07:36:42.667Z,7.55
2023-11-13T07:39:26.666Z,7.56
2023-11-13T07:42:06.221Z,7.56
2023-11-13T07:44:51.627Z,7.57
2023-11-13T07:47:30.973Z,7.58
2023-11-13T07:50:13.917Z,7.59
2023-11-13T07:52:53.486Z,7.58
2023-11-13T07:55:32.864Z,7.59
2023-11-13T07:58:12.460Z,7.59
2023-11-13T08:00:57.926Z,7.57
2023-11-13T08:03:37.610Z,7.54
2023-11-13T08:06:16.949Z,7.48
2023-11-13T08:08:56.911Z,7.48
2023-11-13T08:11:36.242Z,7.53
2023-11-13T08:14:17.954Z,7.59
2023-11-13T08:17:02.724Z,7.66
2023-11-13T08:19:44.098Z,7.69
2023-11-13T08:22:23.396Z,7.68
2023-11-13T08:25:02.744Z,7.68
2023-11-13T08:27:42.053Z,7.67
2023-11-13T08:30:24.835Z,7.63
2023-11-13T08:33:10.684Z,7.64
2023-11-13T08:35:50.423Z,7.62
2023-11-13T08:38:29.724Z,7.63
2023-11-13T08:41:09.021Z,7.67
2023-11-13T08:43:48.343Z,7.73
2023-11-13T08:46:28.134Z,7.77
2023-11-13T08:49:16.624Z,7.83
2023-11-13T08:51:55.952Z,7.85
2023-11-13T08:54:36.131Z,7.84
2023-11-13T08:57:16.172Z,7.85
2023-11-13T08:59:55.652Z,7.86
2023-11-13T09:02:35.131Z,7.84
2023-11-13T09:05:21.802Z,7.84
2023-11-13T09:08:01.109Z,7.84
2023-11-13T09:10:40.783Z,7.83
2023-11-13T09:13:20.064Z,7.85
2023-11-13T09:15:59.417Z,7.86
2023-11-13T09:18:39.119Z,7.90
2023-11-13T09:21:25.483Z,7.86
2023-11-13T09:24:04.755Z,7.90
2023-11-13T09:26:44.056Z,7.94
2023-11-13T09:29:23.316Z,7.94
2023-11-13T09:32:02.684Z,7.97
2023-11-13T09:34:44.404Z,7.98
2023-11-13T09:37:28.851Z,7.97
2023-11-13T09:40:10.642Z,8.00
2023-11-13T09:42:53.361Z,8.03
2023-11-13T09:45:32.718Z,8.07
2023-11-13T09:48:15.217Z,8.07
2023-11-13T09:50:56.161Z,8.14
2023-11-13T09:53:45.047Z,8.18
2023-11-13T09:56:25.937Z,8.21
2023-11-13T09:59:08.069Z,8.23
2023-11-13T10:01:47.477Z,8.24
2023-11-13T10:04:26.903Z,8.24
2023-11-13T10:07:06.718Z,8.24
2023-11-13T10:10:12.236Z,8.24
2023-11-13T10:12:52.010Z,8.23
2023-11-13T10:15:32.678Z,8.27
2023-11-13T10:18:15.164Z,8.26
2023-11-13T10:20:55.535Z,8.28
2023-11-13T10:23:43.156Z,8.30
2023-11-13T10:26:34.279Z,8.28
2023-11-13T10:29:29.001Z,8.27
2023-11-13T10:32:09.297Z,8.28
2023-11-13T10:34:51.638Z,8.28
2023-11-13T10:37:32.218Z,8.32
2023-11-13T10:40:13.661Z,8.34
2023-11-13T10:43:00.744Z,8.35
2023-11-13T10:45:40.258Z,8.35
2023-11-13T10:48:21.935Z,8.37
2023-11-13T10:51:07.006Z,8.39
2023-11-13T10:53:48.439Z,8.43
2023-11-13T10:56:28.171Z,8.43
2023-11-13T10:59:12.704Z,8.40
2023-11-13T11:01:54.590Z,8.40
2023-11-13T11:04:37.026Z,8.43
2023-11-13T11:07:19.701Z,8.43
2023-11-13T11:10:04.060Z,8.42
2023-11-13T11:12:50.331Z,8.44
2023-11-13T11:15:57.666Z,8.47
2023-11-13T11:18:49.962Z,8.48
2023-11-13T11:21:49.132Z,8.48
2023-11-13T11:24:40.515Z,8.50
2023-11-13T11:27:49.268Z,8.51
2023-11-13T11:30:43.962Z,8.53
2023-11-13T11:33:25.409Z,8.53
2023-11-13T11:36:06.450Z,8.54
2023-11-13T11:38:45.817Z,8.52
2023-11-13T11:41:48.195Z,8.53
2023-11-13T11:44:36.986Z,8.56
2023-11-13T11:47:28.421Z,8.54
2023-11-13T11:50:08.849Z,8.57
2023-11-13T11:52:54.136Z,8.61
2023-11-13T11:55:35.840Z,8.64
2023-11-13T11:58:16.062Z,8.67
2023-11-13T12:01:00.581Z,8.72
2023-11-13T12:03:40.271Z,8.75
2023-11-13T12:06:20.903Z,8.77
2023-11-13T12:09:00.307Z,8.79
2023-11-13T12:11:40.964Z,8.81
2023-11-13T12:14:20.339Z,8.82
2023-11-13T12:17:05.834Z,8.80
2023-11-13T12:19:45.609Z,8.78
2023-11-13T12:22:25.090Z,8.81
2023-11-13T12:25:04.768Z,8.83
2023-11-13T12:27:45.890Z,8.85
2023-11-13T12:30:26.479Z,8.90
2023-11-13T12:33:11.004Z,8.92
2023-11-13T12:35:50.328Z,8.97
2023-11-13T12:38:30.607Z,9.02
2023-11-13T12:41:09.951Z,9.04
2023-11-13T12:43:50.228Z,9.06
2023-11-13T12:46:31.047Z,9.09
2023-11-13T12:49:19.508Z,9.17
2023-11-13T12:51:58.947Z,9.26
2023-11-13T12:54:38.277Z,9.37
2023-11-13T12:57:21.254Z,9.45
2023-11-13T13:00:00.672Z,9.48
2023-11-13T13:02:41.046Z,9.50
2023-11-13T13:05:30.802Z,9.55
2023-11-13T13:08:13.468Z,9.58
2023-11-13T13:10:53.827Z,9.58
2023-11-13T13:13:42.642Z,9.56
2023-11-13T13:16:29.850Z,9.60
2023-11-13T13:19:11.687Z,9.60
2023-11-13T13:21:56.218Z,9.64
2023-11-13T13:24:35.676Z,9.63
2023-11-13T13:27:15.429Z,9.60
2023-11-13T13:29:54.842Z,9.58
2023-11-13T13:32:35.682Z,9.57
2023-11-13T13:35:16.007Z,9.58
2023-11-13T13:38:00.329Z,9.60
2023-11-13T13:40:43.712Z,9.60
2023-11-13T13:43:24.840Z,9.59
2023-11-13T13:46:05.442Z,9.61
2023-11-13T13:48:46.905Z,9.62
2023-11-13T13:51:27.297Z,9.63
2023-11-13T13:54:12.291Z,9.63
2023-11-13T13:56:51.932Z,9.66
2023-11-13T13:59:32.186Z,9.67
2023-11-13T14:02:12.328Z,9.72
2023-11-13T14:04:51.793Z,9.71
2023-11-13T14:07:31.128Z,9.70
2023-11-13T14:10:16.227Z,9.72
2023-11-13T14:12:55.873Z,9.75
2023-11-13T14:15:35.312Z,9.77
2023-11-13T14:18:14.689Z,9.79
2023-11-13T14:20:53.973Z,9.82
2023-11-13T14:23:34.222Z,9.89
2023-11-13T14:26:22.566Z,9.89
2023-11-13T14:29:02.297Z,9.88
2023-11-13T14:31:42.131Z,9.91
2023-11-13T14:34:21.692Z,9.89
2023-11-13T14:37:01.098Z,9.89
2023-11-13T14:39:40.821Z,9.86
2023-11-13T14:42:26.617Z,9.88
2023-11-13T14:45:06.005Z,9.89
2023-11-13T14:47:46.582Z,9.85
2023-11-13T14:50:28.279Z,9.84
2023-11-13T14:53:07.653Z,9.86
2023-11-13T14:55:47.043Z,9.91
2023-11-13T14:58:31.670Z,9.95
2023-11-13T15:01:11.479Z,9.95
2023-11-13T15:03:52.677Z,9.96
2023-11-13T15:06:32.026Z,9.96
2023-11-13T15:09:12.259Z,9.98
2023-11-13T15:11:54.529Z,9.99
2023-11-13T15:14:39.077Z,9.97
2023-11-13T15:17:18.910Z,9.93
2023-11-13T15:19:58.430Z,9.96
2023-11-13T15:22:55.905Z,9.95
2023-11-13T15:25:38.133Z,9.91
2023-11-13T15:28:17.467Z,9.94
2023-11-13T15:31:01.864Z,9.95
2023-11-13T15:33:41.259Z,9.98
2023-11-13T15:36:23.191Z,10.02
2023-11-13T15:39:05.976Z,10.01
2023-11-13T15:41:45.340Z,10.04
2023-11-13T15:44:24.660Z,10.06
2023-11-13T15:47:10.748Z,10.05
2023-11-13T15:49:50.072Z,10.09
2023-11-13T15:52:29.854Z,10.13
2023-11-13T15:55:09.161Z,10.17
2023-11-13T15:57:48.624Z,10.36
2023-11-13T16:00:29.667Z,10.59
2023-11-13T16:03:14.153Z,10.87
2023-11-13T16:05:53.483Z,11.23
2023-11-13T16:08:32.862Z,11.53
2023-11-13T16:11:12.797Z,11.83
2023-11-13T16:13:53.695Z,12.14
2023-11-13T16:16:33.028Z,12.27
2023-11-13T16:19:17.701Z,12.38
2023-11-13T16:21:57.015Z,12.47
2023-11-13T16:24:36.851Z,12.51
2023-11-13T16:27:16.193Z,12.56
2023-11-13T16:29:55.744Z,12.60
2023-11-13T16:32:35.221Z,12.67
2023-11-13T16:35:19.962Z,12.72
2023-11-13T16:37:59.243Z,12.76
2023-11-13T16:40:38.857Z,12.89
2023-11-13T16:43:18.269Z,12.91
2023-11-13T16:45:59.102Z,12.95
2023-11-13T16:48:38.659Z,13.08
2023-11-13T16:51:23.925Z,13.12
2023-11-13T16:54:03.325Z,13.18
2023-11-13T16:56:47.124Z,13.24
2023-11-13T16:59:26.396Z,13.25
2023-11-13T17:02:05.738Z,13.29
2023-11-13T17:04:45.124Z,13.31
2023-11-13T17:07:32.344Z,13.33
2023-11-13T17:10:12.413Z,13.40
2023-11-13T17:12:51.758Z,13.44
2023-11-13T17:15:31.594Z,13.64
2023-11-13T17:18:11.614Z,13.69
2023-11-13T17:20:56.287Z,13.74
2023-11-13T17:23:40.723Z,13.72
2023-11-13T17:26:20.056Z,13.72
2023-11-13T17:28:59.359Z,13.84
2023-11-13T17:31:38.757Z,13.78
2023-11-13T17:34:18.744Z,13.77
2023-11-13T17:36:58.403Z,13.75
2023-11-13T17:39:42.833Z,13.76
2023-11-13T17:42:23.523Z,13.94
2023-11-13T17:45:05.862Z,13.93
2023-11-13T17:47:46.008Z,13.92
2023-11-13T17:50:25.332Z,14.02
2023-11-13T17:53:04.677Z,14.03
2023-11-13T17:55:49.199Z,14.03
2023-11-13T17:58:28.525Z,14.10
2023-11-13T18:01:08.371Z,14.26
2023-11-13T18:03:49.550Z,14.26
2023-11-13T18:06:32.211Z,14.27
2023-11-13T18:09:13.153Z,14.29
2023-11-13T18:11:57.568Z,14.24
2023-11-13T18:14:37.218Z,14.27
2023-11-13T18:17:16.569Z,14.32
2023-11-13T18:19:55.933Z,14.35
2023-11-13T18:22:35.582Z,14.39
2023-11-13T18:25:15.853Z,14.40
2023-11-13T18:28:00.235Z,14.37
2023-11-13T18:30:39.678Z,14.42
2023-11-13T18:33:19.029Z,14.47
2023-11-13T18:35:59.230Z,14.50
2023-11-13T18:38:38.748Z,14.69
2023-11-13T18:41:19.022Z,14.69
2023-11-13T18:44:03.956Z,14.61
2023-11-13T18:46:44.288Z,14.61
2023-11-13T18:49:23.785Z,14.58
2023-11-13T18:52:03.107Z,14.77
2023-11-13T18:54:42.437Z,14.85
2023-11-13T18:57:23.586Z,15.30
2023-11-13T19:00:07.997Z,15.32
2023-11-13T19:02:49.031Z,15.13
2023-11-13T19:05:29.397Z,15.12
2023-11-13T19:08:08.762Z,15.02
2023-11-13T19:10:48.190Z,14.93
2023-11-13T19:13:27.582Z,14.93
2023-11-13T19:16:13.689Z,14.88
2023-11-13T19:18:53.775Z,14.92
2023-11-13T19:21:33.106Z,14.90
2023-11-13T19:24:13.462Z,14.89
2023-11-13T19:26:52.790Z,14.90
2023-11-13T19:29:32.274Z,14.97
2023-11-13T19:32:17.901Z,14.94
2023-11-13T19:34:57.262Z,14.94
2023-11-13T19:37:36.587Z,14.95
2023-11-13T19:40:18.790Z,15.17
2023-11-13T19:43:00.610Z,15.05
2023-11-13T19:45:39.978Z,14.79
2023-11-13T19:48:25.945Z,13.26
2023-11-13T19:51:08.019Z,12.15
2023-11-13T19:53:47.361Z,12.00
2023-11-13T19:56:26.740Z,11.89
2023-11-13T19:59:06.333Z,11.88
2023-11-13T20:01:45.726Z,11.88
2023-11-13T20:04:30.258Z,11.92
2023-11-13T20:07:10.871Z,11.93
2023-11-13T20:09:50.222Z,11.93
2023-11-13T20:12:29.638Z,11.95
2023-11-13T20:15:09.080Z,11.98
2023-11-13T20:17:49.465Z,12.03
2023-11-13T20:20:34.090Z,12.10
2023-11-13T20:23:13.813Z,12.15
2023-11-13T20:25:53.983Z,12.20
2023-11-13T20:28:33.387Z,12.25
2023-11-13T20:31:14.578Z,12.40
2023-11-13T20:33:55.218Z,12.45
2023-11-13T20:36:40.816Z,12.45
2023-11-13T20:39:20.648Z,12.33
2023-11-13T20:42:02.117Z,12.30
2023-11-13T20:44:41.843Z,12.26
2023-11-13T20:47:22.599Z,12.32
2023-11-13T20:50:02.250Z,12.55
2023-11-13T20:52:46.786Z,12.48
2023-11-13T20:55:26.215Z,12.48
2023-11-13T20:58:07.668Z,12.42
2023-11-13T21:00:48.738Z,12.37
2023-11-13T21:03:29.953Z,12.29
2023-11-13T21:06:10.410Z,12.22
2023-11-13T21:08:54.961Z,12.14
2023-11-13T21:11:37.944Z,12.08
2023-11-13T21:14:17.478Z,12.20
2023-11-13T21:16:56.822Z,12.13
2023-11-13T21:19:36.341Z,12.09
2023-11-13T21:22:15.696Z,12.06
2023-11-13T21:25:00.131Z,12.03
2023-11-13T21:27:40.402Z,12.02
2023-11-13T21:30:20.846Z,11.99
2023-11-13T21:33:00.233Z,11.95
2023-11-13T21:35:39.544Z,11.92
2023-11-13T21:38:19.936Z,11.91
2023-11-13T21:41:04.541Z,11.89
2023-11-13T21:43:43.850Z,11.88
2023-11-13T21:46:24.019Z,11.88
2023-11-13T21:49:04.322Z,11.88
2023-11-13T21:51:45.866Z,11.85
2023-11-13T21:54:25.360Z,11.84
2023-11-13T21:57:12.249Z,11.84
2023-11-13T21:59:52.058Z,11.84
2023-11-13T22:02:31.680Z,11.83
2023-11-13T22:05:11.725Z,11.80
2023-11-13T22:07:53.461Z,11.78
2023-11-13T22:10:34.133Z,11.75
2023-11-13T22:13:18.846Z,11.72
2023-11-13T22:15:59.877Z,11.68
2023-11-13T22:18:39.215Z,11.65
2023-11-13T22:21:18.570Z,11.63
2023-11-13T22:23:57.902Z,11.60
2023-11-13T22:26:37.185Z,11.55
2023-11-13T22:29:21.954Z,11.49
2023-11-13T22:32:01.426Z,11.43
2023-11-13T22:34:42.263Z,11.39
2023-11-13T22:37:21.932Z,11.34
2023-11-13T22:40:01.241Z,11.30
2023-11-13T22:42:40.684Z,11.22
2023-11-13T22:45:25.904Z,11.13
2023-11-13T22:48:06.365Z,11.02
2023-11-13T22:50:45.910Z,10.90
2023-11-13T22:53:25.278Z,10.81
2023-11-13T22:56:04.826Z,10.70
2023-11-13T22:58:44.688Z,10.62
2023-11-13T23:01:31.298Z,10.55
2023-11-13T23:04:11.090Z,10.69
2023-11-13T23:06:50.403Z,10.97
2023-11-13T23:09:30.590Z,10.94
2023-11-13T23:12:09.997Z,10.94
2023-11-13T23:14:49.402Z,10.97
2023-11-13T23:17:33.997Z,10.94
2023-11-13T23:20:15.902Z,10.95
2023-11-13T23:22:55.301Z,10.95
2023-11-13T23:25:34.641Z,10.94
2023-11-13T23:28:13.996Z,10.89
2023-11-13T23:30:54.321Z,10.86
2023-11-13T23:33:38.912Z,10.82
2023-11-13T23:36:18.483Z,10.78
2023-11-13T23:38:57.747Z,10.86
2023-11-13T23:41:38.035Z,10.82
2023-11-13T23:44:18.068Z,10.78
2023-11-13T23:46:57.631Z,10.77
2023-11-13T23:49:42.917Z,10.73
2023-11-13T23:52:22.289Z,10.73
2023-11-13T23:55:01.977Z,10.73
2023-11-13T23:57:41.255Z,10.70
